createdAt,value
2023-04-11T00:00:21.006Z,1.60
2023-04-11T00:02:49.054Z,1.48
2023-04-11T00:05:17.042Z,1.40
2023-04-11T00:07:44.951Z,1.88
2023-04-11T00:10:13.089Z,1.80
2023-04-11T00:12:40.942Z,1.70
2023-04-11T00:15:09.800Z,1.48
2023-04-11T00:17:39.223Z,1.67
2023-04-11T00:20:08.724Z,1.60
2023-04-11T00:22:36.754Z,1.60
2023-04-11T00:25:04.866Z,1.55
2023-04-11T00:27:32.756Z,2.35
2023-04-11T00:30:00.781Z,1.67
2023-04-11T00:32:28.880Z,1.90
2023-04-11T00:34:58.128Z,1.85
2023-04-11T00:37:26.415Z,1.70
2023-04-11T00:39:57.617Z,1.60
2023-04-11T00:42:25.609Z,1.67
2023-04-11T00:44:53.542Z,1.70
2023-04-11T00:47:21.459Z,1.85
2023-04-11T00:49:49.397Z,1.73
2023-04-11T00:52:19.285Z,1.75
2023-04-11T00:54:47.622Z,1.70
2023-04-11T00:57:16.275Z,1.60
2023-04-11T00:59:48.140Z,1.65
2023-04-11T01:02:16.102Z,1.65
2023-04-11T01:04:45.390Z,1.80
2023-04-11T01:07:43.395Z,1.50
2023-04-11T01:10:14.937Z,2.00
2023-04-11T01:12:43.431Z,1.55
2023-04-11T01:15:11.472Z,1.50
2023-04-11T01:17:41.614Z,2.00
2023-04-11T01:20:10.482Z,1.98
2023-04-11T01:22:42.540Z,1.70
2023-04-11T01:25:13.387Z,1.90
2023-04-11T01:27:42.261Z,1.63
2023-04-11T01:30:12.383Z,1.85
2023-04-11T01:32:40.357Z,2.70
2023-04-11T01:35:09.454Z,1.80
2023-04-11T01:37:37.355Z,1.77
2023-04-11T01:40:06.348Z,1.90
2023-04-11T01:42:36.690Z,1.58
2023-04-11T01:45:06.317Z,2.28
2023-04-11T01:47:34.256Z,1.92
2023-04-11T01:50:02.764Z,2.08
2023-04-11T01:52:30.644Z,2.40
2023-04-11T01:54:58.689Z,2.20
2023-04-11T01:57:27.138Z,2.20
2023-04-11T01:59:56.401Z,2.03
2023-04-11T02:02:26.045Z,1.92
2023-04-11T02:04:54.169Z,2.10
2023-04-11T02:07:22.163Z,2.25
2023-04-11T02:09:50.147Z,1.92
2023-04-11T02:12:18.033Z,2.00
2023-04-11T02:14:46.805Z,2.15
2023-04-11T02:17:18.229Z,3.00
2023-04-11T02:19:46.775Z,2.80
2023-04-11T02:22:15.893Z,2.05
2023-04-11T02:24:43.793Z,2.22
2023-04-11T02:27:12.365Z,1.80
2023-04-11T02:29:40.323Z,1.65
2023-04-11T02:32:08.352Z,1.45
2023-04-11T02:34:37.818Z,1.20
2023-04-11T02:37:05.658Z,1.10
2023-04-11T02:39:33.533Z,0.93
2023-04-11T02:42:01.389Z,0.70
2023-04-11T02:44:30.872Z,1.20
2023-04-11T02:47:00.101Z,0.88
2023-04-11T02:49:28.234Z,0.88
2023-04-11T02:51:57.451Z,0.90
2023-04-11T02:54:25.433Z,0.98
2023-04-11T02:56:55.746Z,1.20
2023-04-11T02:59:23.667Z,1.88
2023-04-11T03:01:51.560Z,0.95
2023-04-11T03:04:19.631Z,0.93
2023-04-11T03:06:47.573Z,0.80
2023-04-11T03:09:16.836Z,0.90
2023-04-11T03:11:46.216Z,0.85
2023-04-11T03:14:15.373Z,1.00
2023-04-11T03:16:43.307Z,1.15
2023-04-11T03:19:11.156Z,1.30
2023-04-11T03:21:39.063Z,0.82
2023-04-11T03:24:07.717Z,1.83
2023-04-11T03:26:36.883Z,0.90
2023-04-11T03:29:05.080Z,1.38
2023-04-11T03:31:33.018Z,0.80
2023-04-11T03:34:01.103Z,1.25
2023-04-11T03:36:29.605Z,1.25
2023-04-11T03:38:57.876Z,1.02
2023-04-11T03:41:26.059Z,0.82
2023-04-11T03:43:55.901Z,1.02
2023-04-11T03:46:23.910Z,0.90
2023-04-11T03:48:51.870Z,0.90
2023-04-11T03:51:19.779Z,0.98
2023-04-11T03:53:47.788Z,0.70
2023-04-11T03:56:15.809Z,1.10
2023-04-11T03:58:43.772Z,0.98
2023-04-11T04:01:12.976Z,1.02
2023-04-11T04:03:41.338Z,0.65
2023-04-11T04:06:10.022Z,0.75
2023-04-11T04:08:37.930Z,0.50
2023-04-11T04:11:06.324Z,0.70
2023-04-11T04:13:34.757Z,0.80
2023-04-11T04:16:03.900Z,0.90
2023-04-11T04:18:33.305Z,0.90
2023-04-11T04:21:01.302Z,0.88
2023-04-11T04:23:29.979Z,1.58
2023-04-11T04:26:02.000Z,1.08
2023-04-11T04:28:29.946Z,1.00
2023-04-11T04:30:58.357Z,0.82
2023-04-11T04:33:27.625Z,0.63
2023-04-11T04:35:59.921Z,0.80
2023-04-11T04:38:28.926Z,1.15
2023-04-11T04:40:57.012Z,0.60
2023-04-11T04:43:27.287Z,0.55
2023-04-11T04:45:55.272Z,0.70
2023-04-11T04:48:25.398Z,1.80
2023-04-11T04:50:53.253Z,0.60
2023-04-11T04:53:22.467Z,0.85
2023-04-11T04:55:50.365Z,0.80
2023-04-11T04:58:18.204Z,0.60
2023-04-11T05:00:46.175Z,0.65
2023-04-11T05:03:17.385Z,0.73
2023-04-11T05:05:45.305Z,0.80
2023-04-11T05:08:13.170Z,0.52
2023-04-11T05:10:42.349Z,0.80
2023-04-11T05:13:10.318Z,0.60
2023-04-11T05:15:38.157Z,0.73
2023-04-11T05:18:06.237Z,0.60
2023-04-11T05:20:34.140Z,0.70
2023-04-11T05:23:01.982Z,0.73
2023-04-11T05:25:29.808Z,0.65
2023-04-11T05:27:59.048Z,0.73
2023-04-11T05:30:27.089Z,1.65
2023-04-11T05:32:55.080Z,0.80
2023-04-11T05:35:23.362Z,0.80
2023-04-11T05:37:51.412Z,1.35
2023-04-11T05:40:19.407Z,0.82
2023-04-11T05:42:47.268Z,1.00
2023-04-11T05:45:16.641Z,1.33
2023-04-11T05:47:44.518Z,0.90
2023-04-11T05:50:12.418Z,1.00
2023-04-11T05:52:40.269Z,1.05
2023-04-11T05:55:08.836Z,1.20
2023-04-11T05:57:36.669Z,1.40
2023-04-11T06:00:12.809Z,0.90
2023-04-11T06:02:43.128Z,1.15
2023-04-11T06:05:12.013Z,1.10
2023-04-11T06:07:40.428Z,0.90
2023-04-11T06:10:09.796Z,1.27
2023-04-11T06:12:37.738Z,1.15
2023-04-11T06:15:06.666Z,0.90
2023-04-11T06:17:34.531Z,1.38
2023-04-11T06:20:06.209Z,1.42
2023-04-11T06:22:34.267Z,0.88
2023-04-11T06:25:02.091Z,0.63
2023-04-11T06:27:30.491Z,1.20
2023-04-11T06:29:58.307Z,0.93
2023-04-11T06:32:26.250Z,0.75
2023-04-11T06:34:54.392Z,1.30
2023-04-11T06:37:24.554Z,1.08
2023-04-11T06:39:52.422Z,1.00
2023-04-11T06:42:20.540Z,0.90
2023-04-11T06:44:50.289Z,1.20
2023-04-11T06:47:18.217Z,1.08
2023-04-11T06:49:46.119Z,1.30
2023-04-11T06:52:13.987Z,1.15
2023-04-11T06:54:43.330Z,1.73
2023-04-11T06:57:11.395Z,1.23
2023-04-11T06:59:39.341Z,1.30
2023-04-11T07:02:07.875Z,1.50
2023-04-11T07:04:35.943Z,1.02
2023-04-11T07:07:04.481Z,1.40
2023-04-11T07:09:32.438Z,1.05
2023-04-11T07:12:01.692Z,0.82
2023-04-11T07:14:29.661Z,2.65
2023-04-11T07:16:57.487Z,1.02
2023-04-11T07:19:25.314Z,1.20
2023-04-11T07:21:53.167Z,1.23
2023-04-11T07:24:21.099Z,0.88
2023-04-11T07:26:50.485Z,2.13
2023-04-11T07:29:20.157Z,1.00
2023-04-11T07:31:48.103Z,1.50
2023-04-11T07:34:16.013Z,1.52
2023-04-11T07:36:43.892Z,1.25
2023-04-11T07:39:13.563Z,1.60
2023-04-11T07:41:41.430Z,1.50
2023-04-11T07:44:09.601Z,1.30
2023-04-11T07:46:38.816Z,1.50
2023-04-11T07:49:06.927Z,1.10
2023-04-11T07:51:34.768Z,1.17
2023-04-11T07:54:02.715Z,1.30
2023-04-11T07:56:30.601Z,1.80
2023-04-11T07:58:58.590Z,1.70
2023-04-11T08:01:27.224Z,1.55
2023-04-11T08:03:57.858Z,2.10
2023-04-11T08:06:26.508Z,1.50
2023-04-11T08:08:54.743Z,1.30
2023-04-11T08:11:22.600Z,1.52
2023-04-11T08:13:50.754Z,1.52
2023-04-11T08:16:18.824Z,1.48
2023-04-11T08:18:48.032Z,1.48
2023-04-11T08:21:17.656Z,1.35
2023-04-11T08:23:46.555Z,1.80
2023-04-11T08:26:14.422Z,1.58
2023-04-11T08:28:43.561Z,1.88
2023-04-11T08:31:13.026Z,2.67
2023-04-11T08:33:41.413Z,1.73
2023-04-11T08:36:10.956Z,1.77
2023-04-11T08:38:41.710Z,2.00
2023-04-11T08:41:09.668Z,2.30
2023-04-11T08:43:38.987Z,1.38
2023-04-11T08:46:08.369Z,1.80
2023-04-11T08:48:36.590Z,1.75
2023-04-11T08:51:04.662Z,1.50
2023-04-11T08:53:32.914Z,1.50
2023-04-11T08:56:02.101Z,1.83
2023-04-11T08:58:30.008Z,1.75
2023-04-11T09:00:57.849Z,1.40
2023-04-11T09:03:25.797Z,1.20
2023-04-11T09:05:54.368Z,1.60
2023-04-11T09:08:22.227Z,1.73
2023-04-11T09:10:50.093Z,2.05
2023-04-11T09:13:24.393Z,1.70
2023-04-11T09:16:05.827Z,1.80
2023-04-11T09:18:34.730Z,1.90
2023-04-11T09:21:04.854Z,1.23
2023-04-11T09:23:32.736Z,1.90
2023-04-11T09:26:00.876Z,1.70
2023-04-11T09:28:42.577Z,2.25
2023-04-11T09:31:12.955Z,1.40
2023-04-11T09:33:52.644Z,1.38
2023-04-11T09:36:21.783Z,1.73
2023-04-11T09:38:49.901Z,2.28
2023-04-11T09:41:31.179Z,1.77
2023-04-11T09:44:01.107Z,1.63
2023-04-11T09:46:29.232Z,1.58
2023-04-11T09:48:57.638Z,2.33
2023-04-11T09:51:35.262Z,1.40
2023-04-11T09:54:06.229Z,1.30
2023-04-11T09:56:35.420Z,1.38
2023-04-11T09:59:05.660Z,1.15
2023-04-11T10:01:33.842Z,1.30
2023-04-11T10:04:01.939Z,1.10
2023-04-11T10:06:34.730Z,1.10
2023-04-11T10:09:08.645Z,1.00
2023-04-11T10:11:36.934Z,1.20
2023-04-11T10:14:06.241Z,1.50
2023-04-11T10:16:34.360Z,1.10
2023-04-11T10:19:25.462Z,1.73
2023-04-11T10:21:53.327Z,1.10
2023-04-11T10:24:22.113Z,1.35
2023-04-11T10:26:54.905Z,1.17
2023-04-11T10:29:53.094Z,1.13
2023-04-11T10:32:23.029Z,1.20
2023-04-11T10:35:30.867Z,1.67
2023-04-11T10:37:59.806Z,1.40
2023-04-11T10:40:27.785Z,1.58
2023-04-11T10:42:57.424Z,1.50
2023-04-11T10:45:27.990Z,1.60
2023-04-11T10:48:05.496Z,1.67
2023-04-11T10:50:40.638Z,1.42
2023-04-11T10:53:14.154Z,1.63
2023-04-11T10:55:47.673Z,1.30
2023-04-11T10:58:19.375Z,1.60
2023-04-11T11:01:26.635Z,1.38
2023-04-11T11:04:06.305Z,1.67
2023-04-11T11:06:46.267Z,2.03
2023-04-11T11:09:23.205Z,1.20
2023-04-11T11:12:06.529Z,2.15
2023-04-11T11:14:34.537Z,1.52
2023-04-11T11:17:04.379Z,1.40
2023-04-11T11:19:32.932Z,1.23
2023-04-11T11:22:03.545Z,1.55
2023-04-11T11:24:31.881Z,1.45
2023-04-11T11:27:00.455Z,1.42
2023-04-11T11:29:32.836Z,1.58
2023-04-11T11:32:04.023Z,1.60
2023-04-11T11:34:33.668Z,1.52
2023-04-11T11:37:04.639Z,1.70
2023-04-11T11:39:33.904Z,1.65
2023-04-11T11:42:02.133Z,1.00
2023-04-11T11:44:31.430Z,1.80
2023-04-11T11:47:04.508Z,1.42
2023-04-11T11:49:45.823Z,1.20
2023-04-11T11:52:14.144Z,1.30
2023-04-11T11:54:46.340Z,1.67
2023-04-11T11:57:22.677Z,2.10
2023-04-11T11:59:54.572Z,2.20
2023-04-11T12:02:26.119Z,2.47
2023-04-11T12:04:59.728Z,1.65
2023-04-11T12:07:32.299Z,1.58
2023-04-11T12:10:01.295Z,1.77
2023-04-11T12:12:37.113Z,1.35
2023-04-11T12:15:11.069Z,1.30
2023-04-11T12:17:40.801Z,1.20
2023-04-11T12:20:10.701Z,2.22
2023-04-11T12:22:38.993Z,1.50
2023-04-11T12:25:08.496Z,1.50
2023-04-11T12:27:37.226Z,1.35
2023-04-11T12:30:05.815Z,1.30
2023-04-11T12:32:34.848Z,1.40
2023-04-11T12:35:05.649Z,1.35
2023-04-11T12:37:34.052Z,1.63
2023-04-11T12:40:01.980Z,1.50
2023-04-11T12:42:29.854Z,1.27
2023-04-11T12:44:57.715Z,1.45
2023-04-11T12:47:25.600Z,1.30
2023-04-11T12:49:53.465Z,1.70
2023-04-11T12:52:22.683Z,1.58
2023-04-11T12:54:50.855Z,1.60
2023-04-11T12:57:18.765Z,2.25
2023-04-11T12:59:46.626Z,1.77
2023-04-11T13:02:14.610Z,1.33
2023-04-11T13:04:42.614Z,1.42
2023-04-11T13:07:10.549Z,1.60
2023-04-11T13:09:39.848Z,1.38
2023-04-11T13:12:08.002Z,1.50
2023-04-11T13:14:37.360Z,1.10
2023-04-11T13:17:05.198Z,1.48
2023-04-11T13:19:33.135Z,1.70
2023-04-11T13:22:01.235Z,1.10
2023-04-11T13:24:29.120Z,1.30
2023-04-11T13:26:58.869Z,1.52
2023-04-11T13:29:27.020Z,1.75
2023-04-11T13:31:54.903Z,1.27
2023-04-11T13:34:22.810Z,1.58
2023-04-11T13:36:51.272Z,1.00
2023-04-11T13:39:19.615Z,1.45
2023-04-11T13:41:47.493Z,1.58
2023-04-11T13:44:16.861Z,1.60
2023-04-11T13:46:44.727Z,1.63
2023-04-11T13:49:12.579Z,1.83
2023-04-11T13:51:41.309Z,1.30
2023-04-11T13:54:09.174Z,1.33
2023-04-11T13:56:38.088Z,1.70
2023-04-11T13:59:06.025Z,1.65
2023-04-11T14:01:35.270Z,1.27
2023-04-11T14:04:03.311Z,1.95
2023-04-11T14:06:31.272Z,1.55
2023-04-11T14:08:59.117Z,2.13
2023-04-11T14:11:26.982Z,1.42
2023-04-11T14:13:55.163Z,1.90
2023-04-11T14:16:23.258Z,1.38
2023-04-11T14:18:52.480Z,1.90
2023-04-11T14:21:21.067Z,1.95
2023-04-11T14:23:49.370Z,1.60
2023-04-11T14:26:17.618Z,2.20
2023-04-11T14:28:45.483Z,1.67
2023-04-11T14:31:13.385Z,1.30
2023-04-11T14:33:41.700Z,1.73
2023-04-11T14:36:11.414Z,1.65
2023-04-11T14:38:39.249Z,1.67
2023-04-11T14:41:07.463Z,1.50
2023-04-11T14:43:35.286Z,1.58
2023-04-11T14:46:03.181Z,1.92
2023-04-11T14:48:31.231Z,1.77
2023-04-11T14:50:59.046Z,1.42
2023-04-11T14:53:28.228Z,2.13
2023-04-11T14:55:56.147Z,1.42
2023-04-11T14:58:23.993Z,1.77
2023-04-11T15:00:52.162Z,2.00
2023-04-11T15:03:20.171Z,1.98
2023-04-11T15:05:48.193Z,1.83
2023-04-11T15:08:16.247Z,1.20
2023-04-11T15:10:45.455Z,1.63
2023-04-11T15:13:13.370Z,1.80
2023-04-11T15:15:41.225Z,2.33
2023-04-11T15:18:30.942Z,2.08
2023-04-11T15:21:00.622Z,1.98
2023-04-11T15:23:28.521Z,1.70
2023-04-11T15:25:58.961Z,1.25
2023-04-11T15:28:28.860Z,1.30
2023-04-11T15:30:57.243Z,2.15
2023-04-11T15:33:25.150Z,1.58
2023-04-11T15:35:54.532Z,2.08
2023-04-11T15:38:22.809Z,1.48
2023-04-11T15:40:51.553Z,1.33
2023-04-11T15:43:21.154Z,1.50
2023-04-11T15:45:49.055Z,1.90
2023-04-11T15:48:18.214Z,1.48
2023-04-11T15:50:46.780Z,1.52
2023-04-11T15:53:14.672Z,1.77
2023-04-11T15:55:43.638Z,1.23
2023-04-11T15:58:11.615Z,1.60
2023-04-11T16:00:42.296Z,1.92
2023-04-11T16:03:10.820Z,1.95
2023-04-11T16:05:40.768Z,1.60
2023-04-11T16:08:08.906Z,1.50
2023-04-11T16:10:36.794Z,1.67
2023-04-11T16:13:04.653Z,2.03
2023-04-11T16:15:33.152Z,1.60
2023-04-11T16:18:02.587Z,1.42
2023-04-11T16:20:32.790Z,1.73
2023-04-11T16:23:00.665Z,1.80
2023-04-11T16:25:28.722Z,2.05
2023-04-11T16:27:56.558Z,1.88
2023-04-11T16:30:25.272Z,2.00
2023-04-11T16:32:53.216Z,1.98
2023-04-11T16:35:22.518Z,2.15
2023-04-11T16:37:50.697Z,1.75
2023-04-11T16:40:18.677Z,2.20
2023-04-11T16:42:46.545Z,2.92
2023-04-11T16:45:14.645Z,2.10
2023-04-11T16:47:42.697Z,1.98
2023-04-11T16:50:11.100Z,1.70
2023-04-11T16:52:40.490Z,1.98
2023-04-11T16:55:09.190Z,1.58
2023-04-11T16:57:37.494Z,1.90
2023-04-11T17:00:10.740Z,2.05
2023-04-11T17:02:38.842Z,1.73
2023-04-11T17:05:08.173Z,1.80
2023-04-11T17:07:36.070Z,2.15
2023-04-11T17:10:06.941Z,1.48
2023-04-11T17:12:34.937Z,1.45
2023-04-11T17:15:03.223Z,1.40
2023-04-11T17:17:31.129Z,1.80
2023-04-11T17:19:58.975Z,2.00
2023-04-11T17:22:26.903Z,1.95
2023-04-11T17:24:54.836Z,2.58
2023-04-11T17:27:24.270Z,1.38
2023-04-11T17:29:52.924Z,2.75
2023-04-11T17:32:21.275Z,1.98
2023-04-11T17:34:49.267Z,1.83
2023-04-11T17:37:17.155Z,1.42
2023-04-11T17:39:46.317Z,2.28
2023-04-11T17:42:14.565Z,1.85
2023-04-11T17:44:43.901Z,1.50
2023-04-11T17:47:11.809Z,1.60
2023-04-11T17:49:39.689Z,1.92
2023-04-11T17:52:07.527Z,1.83
2023-04-11T17:54:36.087Z,2.25
2023-04-11T17:57:04.102Z,2.35
2023-04-11T17:59:32.467Z,1.70
2023-04-11T18:02:01.939Z,2.03
2023-04-11T18:04:30.131Z,1.83
2023-04-11T18:06:58.184Z,1.73
2023-04-11T18:09:28.031Z,2.00
2023-04-11T18:11:57.272Z,1.92
2023-04-11T18:14:25.171Z,1.98
2023-04-11T18:16:53.073Z,1.80
2023-04-11T18:19:22.353Z,1.75
2023-04-11T18:21:50.607Z,2.13
2023-04-11T18:24:18.726Z,1.73
2023-04-11T18:26:47.294Z,2.10
2023-04-11T18:29:15.419Z,1.90
2023-04-11T18:31:43.295Z,1.70
2023-04-11T18:34:11.384Z,1.75
2023-04-11T18:36:41.024Z,2.03
2023-04-11T18:39:08.997Z,2.13
2023-04-11T18:41:36.877Z,2.25
2023-04-11T18:44:06.059Z,2.13
2023-04-11T18:46:35.712Z,1.90
2023-04-11T18:49:04.745Z,1.83
2023-04-11T18:51:34.388Z,1.80
2023-04-11T18:54:03.631Z,2.05
2023-04-11T18:56:31.701Z,1.73
2023-04-11T18:59:05.205Z,2.67
2023-04-11T19:01:36.401Z,2.95
2023-04-11T19:04:05.336Z,2.03
2023-04-11T19:06:33.641Z,1.77
2023-04-11T19:09:02.854Z,1.20
2023-04-11T19:11:31.103Z,1.80
2023-04-11T19:16:27.873Z,2.60
2023-04-11T19:18:56.570Z,2.63
2023-04-11T19:21:24.478Z,2.17
2023-04-11T19:23:52.420Z,2.50
2023-04-11T19:26:22.409Z,2.20
2023-04-11T19:28:50.394Z,2.13
2023-04-11T19:31:18.205Z,2.50
2023-04-11T19:33:46.047Z,2.58
2023-04-11T19:36:13.948Z,1.88
2023-04-11T19:38:42.032Z,2.20
2023-04-11T19:41:13.586Z,2.28
2023-04-11T19:43:43.596Z,2.88
2023-04-11T19:46:12.369Z,2.40
2023-04-11T19:48:41.290Z,2.75
2023-04-11T19:51:09.823Z,2.42
2023-04-11T19:53:39.018Z,2.22
2023-04-11T19:56:09.846Z,2.22
2023-04-11T19:58:37.887Z,2.58
2023-04-11T20:01:07.474Z,3.53
2023-04-11T20:03:35.508Z,2.10
2023-04-11T20:06:05.769Z,2.45
2023-04-11T20:08:33.969Z,2.55
2023-04-11T20:11:03.803Z,2.55
2023-04-11T20:13:33.611Z,2.67
2023-04-11T20:16:04.653Z,2.28
2023-04-11T20:18:35.467Z,1.90
2023-04-11T20:21:06.134Z,2.05
2023-04-11T20:23:35.394Z,2.28
2023-04-11T20:26:03.248Z,2.58
2023-04-11T20:28:31.481Z,2.47
2023-04-11T20:30:59.766Z,1.80
2023-04-11T20:33:28.772Z,2.35
2023-04-11T20:35:58.104Z,1.90
2023-04-11T20:38:26.309Z,1.85
2023-04-11T20:40:54.277Z,1.80
2023-04-11T20:43:25.326Z,1.90
2023-04-11T20:45:54.366Z,2.00
2023-04-11T20:48:22.221Z,1.95
2023-04-11T20:50:53.576Z,1.60
2023-04-11T20:53:22.855Z,2.28
2023-04-11T20:55:50.977Z,2.25
2023-04-11T20:58:20.774Z,2.35
2023-04-11T21:00:48.681Z,2.30
2023-04-11T21:03:16.751Z,1.67
2023-04-11T21:05:46.690Z,1.98
2023-04-11T21:08:14.658Z,1.92
2023-04-11T21:10:43.858Z,2.10
2023-04-11T21:13:11.737Z,2.20
2023-04-11T21:15:39.660Z,1.85
2023-04-11T21:18:07.739Z,2.72
2023-04-11T21:20:35.780Z,2.15
2023-04-11T21:23:03.621Z,1.90
2023-04-11T21:25:31.839Z,2.90
2023-04-11T21:28:01.049Z,2.17
2023-04-11T21:30:30.490Z,1.92
2023-04-11T21:32:58.473Z,2.00
2023-04-11T21:35:26.606Z,2.40
2023-04-11T21:37:54.490Z,2.00
2023-04-11T21:40:22.440Z,1.52
2023-04-11T21:42:50.542Z,1.85
2023-04-11T21:45:19.938Z,2.08
2023-04-11T21:47:47.905Z,1.92
2023-04-11T21:50:16.278Z,1.80
2023-04-11T21:52:44.485Z,2.05
2023-04-11T21:55:12.733Z,2.03
2023-04-11T21:57:40.663Z,2.17
2023-04-11T22:00:11.089Z,1.65
2023-04-11T22:02:41.142Z,2.30
2023-04-11T22:05:09.878Z,3.03
2023-04-11T22:07:47.114Z,2.38
2023-04-11T22:10:15.515Z,2.13
2023-04-11T22:12:45.652Z,2.80
2023-04-11T22:15:14.116Z,1.98
2023-04-11T22:17:46.106Z,1.98
2023-04-11T22:20:16.472Z,2.72
2023-04-11T22:22:44.782Z,2.53
2023-04-11T22:25:13.561Z,3.63
2023-04-11T22:27:41.519Z,5.47
2023-04-11T22:30:11.139Z,2.20
2023-04-11T22:32:39.151Z,2.30
2023-04-11T22:35:09.257Z,1.83
2023-04-11T22:37:37.221Z,2.10
2023-04-11T22:40:06.690Z,2.30
2023-04-11T22:42:34.925Z,2.40
2023-04-11T22:45:03.061Z,2.55
2023-04-11T22:47:32.523Z,2.92
2023-04-11T22:50:01.415Z,2.58
2023-04-11T22:52:30.661Z,2.30
2023-04-11T22:54:58.472Z,2.88
2023-04-11T22:57:26.353Z,2.75
2023-04-11T22:59:54.268Z,2.17
2023-04-11T23:02:23.130Z,2.30
2023-04-11T23:04:51.196Z,2.08
2023-04-11T23:07:19.168Z,2.42
2023-04-11T23:09:48.394Z,1.98
2023-04-11T23:12:16.288Z,2.58
2023-04-11T23:14:46.405Z,2.08
2023-04-11T23:17:14.281Z,2.80
2023-04-11T23:19:42.284Z,2.55
2023-04-11T23:22:10.143Z,2.20
2023-04-11T23:24:37.999Z,1.98
2023-04-11T23:27:07.181Z,2.03
2023-04-11T23:29:35.033Z,2.08
2023-04-11T23:32:02.954Z,3.00
2023-04-11T23:34:30.859Z,2.40
2023-04-11T23:36:58.792Z,2.25
2023-04-11T23:39:26.845Z,2.35
2023-04-11T23:41:54.698Z,2.53
2023-04-11T23:44:24.790Z,1.98
2023-04-11T23:46:52.667Z,2.90
2023-04-11T23:49:20.668Z,3.20
2023-04-11T23:51:48.483Z,2.85
2023-04-11T23:54:16.369Z,2.78
2023-04-11T23:56:44.689Z,2.90
2023-04-11T23:59:12.530Z,2.58
